Time;durP1;ratioP1;P1;durP2;ratioP2;P2;SDS_P1;SDS_P2;PMS_P1;PMS_P2;Temp;Humidity;BMP_temperature;BMP_pressure;BME280_temperature;BME280_humidity;BME280_pressure;Samples;Min_cycle;Max_cycle;Signal;HPM_P1;HPM_P2
2023/10/10 00:01:03;;;;;;;14.33;3.83;;;13.80;96.70;;;;;;5050010;28;20638;-65
2023/10/10 00:03:32;;;;;;;7.53;4.37;;;13.80;96.50;;;;;;5019685;28;20487;-65
2023/10/10 00:05:59;;;;;;;15.00;4.70;;;13.90;96.20;;;;;;5037700;28;20479;-65
2023/10/10 00:08:30;;;;;;;14.60;5.30;;;13.90;95.80;;;;;;5047759;28;20481;-65
2023/10/10 00:10:56;;;;;;;7.83;3.40;;;14.00;95.60;;;;;;5042484;28;20994;-64
2023/10/10 00:13:25;;;;;;;9.40;4.23;;;14.00;95.50;;;;;;5031724;28;20663;-65
2023/10/10 00:15:55;;;;;;;15.07;4.07;;;14.00;95.40;;;;;;5037905;28;20479;-65
2023/10/10 00:18:29;;;;;;;6.07;3.97;;;14.00;95.50;;;;;;5031218;28;20567;-64
2023/10/10 00:21:09;;;;;;;18.23;4.47;;;13.80;95.50;;;;;;5025839;28;20483;-65
2023/10/10 00:23:42;;;;;;;8.63;3.57;;;13.80;95.30;;;;;;5042982;28;20819;-64
2023/10/10 00:26:12;;;;;;;4.90;3.80;;;13.70;95.40;;;;;;5028375;28;20479;-65
2023/10/10 00:28:41;;;;;;;10.60;4.10;;;13.60;95.40;;;;;;5028495;28;20879;-64
2023/10/10 00:31:10;;;;;;;13.73;3.80;;;13.30;95.80;;;;;;5018443;28;20490;-65
2023/10/10 00:33:40;;;;;;;16.43;3.73;;;13.00;96.10;;;;;;5041859;28;20486;-64
2023/10/10 00:36:20;;;;;;;17.70;3.60;;;12.80;96.40;;;;;;5035833;28;20629;-64
2023/10/10 00:38:49;;;;;;;4.97;3.50;;;12.50;96.70;;;;;;5041442;28;20937;-64
2023/10/10 00:41:16;;;;;;;7.80;3.30;;;12.50;96.80;;;;;;5049173;28;21259;-64
2023/10/10 00:43:42;;;;;;;16.37;3.90;;;12.40;97.00;;;;;;5048284;28;20487;-64
2023/10/10 00:46:11;;;;;;;9.80;3.60;;;12.40;97.40;;;;;;5037431;28;21100;-64
2023/10/10 00:48:39;;;;;;;10.13;4.30;;;12.30;97.90;;;;;;5054507;28;20835;-64
2023/10/10 00:51:10;;;;;;;9.33;4.80;;;12.30;98.30;;;;;;5046957;28;20573;-64
2023/10/10 00:53:39;;;;;;;8.00;4.17;;;12.40;98.30;;;;;;5049966;28;20509;-64
2023/10/10 00:56:07;;;;;;;21.53;4.63;;;12.40;98.30;;;;;;5039869;28;20475;-66
2023/10/10 00:58:37;;;;;;;7.20;3.60;;;12.50;98.20;;;;;;5034464;28;21081;-66
2023/10/10 01:01:10;;;;;;;36.57;5.33;;;12.70;97.60;;;;;;5031369;28;20487;-66
2023/10/10 01:03:41;;;;;;;6.73;3.87;;;12.80;97.20;;;;;;5030406;28;20510;-66
2023/10/10 01:06:14;;;;;;;6.47;3.80;;;12.90;96.80;;;;;;5033451;28;20479;-66
2023/10/10 01:08:50;;;;;;;14.10;2.93;;;12.90;96.00;;;;;;5047064;28;20485;-66
2023/10/10 01:11:19;;;;;;;10.67;3.57;;;12.90;95.80;;;;;;5035176;28;20597;-66
2023/10/10 01:13:46;;;;;;;7.63;4.00;;;12.90;95.80;;;;;;5036558;28;20479;-66
2023/10/10 01:16:13;;;;;;;5.87;3.47;;;12.90;95.50;;;;;;5032843;28;20559;-66
2023/10/10 01:18:51;;;;;;;12.13;4.50;;;12.70;95.90;;;;;;5035688;28;20499;-66
2023/10/10 01:21:28;;;;;;;65.77;6.60;;;12.50;96.70;;;;;;5030608;28;20540;-66
2023/10/10 01:23:58;;;;;;;10.33;4.43;;;12.40;96.70;;;;;;5035777;28;20847;-66
2023/10/10 01:26:28;;;;;;;8.90;4.00;;;12.40;96.60;;;;;;5019775;28;20594;-66
2023/10/10 01:29:12;;;;;;;16.67;4.10;;;12.40;96.60;;;;;;5034061;28;20487;-66
2023/10/10 01:31:40;;;;;;;8.90;3.67;;;12.20;96.50;;;;;;5046861;28;20561;-66
2023/10/10 01:34:09;;;;;;;10.03;4.03;;;12.10;96.70;;;;;;5043938;28;20482;-66
2023/10/10 01:36:38;;;;;;;15.87;3.33;;;12.00;97.00;;;;;;5057413;28;20470;-66
2023/10/10 01:39:21;;;;;;;13.53;3.60;;;12.00;97.10;;;;;;5054469;28;20556;-66
2023/10/10 01:41:51;;;;;;;6.27;3.70;;;12.00;97.60;;;;;;5056118;28;21058;-66
2023/10/10 01:44:22;;;;;;;4.23;2.60;;;;;;;;;;5058015;28;21044;-66
2023/10/10 01:46:51;;;;;;;17.33;4.93;;;12.20;97.10;;;;;;5051446;28;20510;-66
2023/10/10 01:49:21;;;;;;;7.23;2.97;;;12.30;96.80;;;;;;5042078;28;20490;-66
2023/10/10 01:51:54;;;;;;;6.93;3.50;;;12.30;96.50;;;;;;5054034;28;20487;-66
2023/10/10 01:54:22;;;;;;;6.93;4.40;;;12.10;96.30;;;;;;5052740;28;20467;-66
2023/10/10 01:56:51;;;;;;;11.10;4.53;;;12.00;96.60;;;;;;5034699;28;20893;-66
2023/10/10 01:59:24;;;;;;;7.70;3.93;;;12.00;97.10;;;;;;5050127;28;20493;-66
2023/10/10 02:01:52;;;;;;;8.03;3.03;;;12.00;97.10;;;;;;5050033;28;20963;-66
2023/10/10 02:04:27;;;;;;;16.77;4.07;;;12.10;96.70;;;;;;5035944;28;21280;-65
2023/10/10 02:06:57;;;;;;;11.20;3.70;;;12.20;96.60;;;;;;5041656;28;21055;-66
2023/10/10 02:09:33;;;;;;;16.30;4.03;;;12.20;96.40;;;;;;5036259;28;20482;-66
2023/10/10 02:12:12;;;;;;;11.33;4.93;;;12.20;96.20;;;;;;5054983;28;20562;-65
2023/10/10 02:14:42;;;;;;;11.43;4.27;;;12.20;96.10;;;;;;5061553;28;20938;-66
2023/10/10 02:17:20;;;;;;;13.83;3.70;;;12.30;96.10;;;;;;5043726;28;20487;-64
2023/10/10 02:19:58;;;;;;;7.30;3.33;;;12.30;96.30;;;;;;5041380;28;20494;-64
2023/10/10 02:22:47;;;;;;;4.93;3.17;;;12.30;96.20;;;;;;5046277;28;20573;-64
2023/10/10 02:25:37;;;;;;;7.97;4.60;;;12.20;95.90;;;;;;5045200;28;20488;-66
2023/10/10 02:28:10;;;;;;;5.50;3.20;;;12.20;95.80;;;;;;5053457;28;20506;-65
2023/10/10 02:30:37;;;;;;;20.60;4.50;;;;;;;;;;5055077;28;20564;-65
2023/10/10 02:33:15;;;;;;;8.47;4.13;;;12.20;95.60;;;;;;5043839;28;20551;-65
2023/10/10 02:35:58;;;;;;;14.03;3.53;;;12.20;95.60;;;;;;5061134;28;20489;-66
2023/10/10 02:38:34;;;;;;;10.90;4.70;;;12.20;95.60;;;;;;5056008;28;22012;-65
2023/10/10 02:41:26;;;;;;;9.03;3.17;;;11.90;95.30;;;;;;5042450;28;20579;-66
2023/10/10 02:44:01;;;;;;;28.13;4.53;;;11.80;95.70;;;;;;5049400;28;20498;-66
2023/10/10 02:46:35;;;;;;;8.07;3.80;;;11.80;95.60;;;;;;5050479;28;20459;-65
2023/10/10 02:49:09;;;;;;;5.60;2.57;;;11.80;95.50;;;;;;5053757;28;20477;-65
2023/10/10 02:51:40;;;;;;;10.30;4.40;;;;;;;;;;5046600;28;21603;-65
2023/10/10 02:54:27;;;;;;;18.30;3.70;;;11.70;95.60;;;;;;5046454;28;20525;-65
2023/10/10 02:56:56;;;;;;;7.57;3.67;;;11.70;95.60;;;;;;5059355;28;20481;-65
2023/10/10 02:59:23;;;;;;;5.17;2.63;;;11.70;95.30;;;;;;5054805;28;20484;-66
2023/10/10 03:02:08;;;;;;;10.30;3.80;;;11.70;95.30;;;;;;5053579;28;20489;-66
2023/10/10 03:05:05;;;;;;;36.80;4.50;;;11.70;95.40;;;;;;5049296;28;20487;-66
2023/10/10 03:07:33;;;;;;;7.53;3.20;;;11.70;95.60;;;;;;5050726;28;20481;-65
2023/10/10 03:12:49;;;;;;;12.60;4.13;;;11.70;95.40;;;;;;5049116;28;20482;-65
2023/10/10 03:15:27;;;;;;;11.83;3.50;;;11.70;95.40;;;;;;5049591;28;20486;-66
2023/10/10 03:18:15;;;;;;;7.33;3.70;;;11.70;95.30;;;;;;5051973;28;20478;-65
2023/10/10 03:20:51;;;;;;;6.37;3.17;;;11.70;95.30;;;;;;5042398;28;20482;-65
2023/10/10 03:23:43;;;;;;;15.30;3.40;;;11.60;95.20;;;;;;5039757;28;21317;-66
2023/10/10 03:26:19;;;;;;;8.50;4.17;;;11.60;95.10;;;;;;5032937;28;20483;-64
2023/10/10 03:28:49;;;;;;;9.33;3.10;;;11.50;95.10;;;;;;5050962;28;20487;-64
2023/10/10 03:31:24;;;;;;;7.03;3.93;;;11.50;95.10;;;;;;5026472;28;20477;-64
2023/10/10 03:34:10;;;;;;;10.93;3.13;;;11.40;95.00;;;;;;5020599;28;20484;-64
2023/10/10 03:36:43;;;;;;;4.47;3.20;;;11.40;95.10;;;;;;5030274;28;20941;-65
2023/10/10 03:39:41;;;;;;;30.40;4.77;;;11.40;95.30;;;;;;5013394;28;20900;-65
2023/10/10 05:24:24;;;;;;;3.80;2.90;;;10.30;94.80;;;;;;5053875;28;21095;-65
2023/10/10 05:26:54;;;;;;;4.93;3.17;;;10.20;94.90;;;;;;5061661;28;20490;-66
2023/10/10 05:29:21;;;;;;;34.83;5.00;;;10.10;95.00;;;;;;5056448;28;20475;-65
2023/10/10 05:31:51;;;;;;;8.50;3.23;;;10.00;95.00;;;;;;5054868;28;20479;-66
2023/10/10 05:34:22;;;;;;;6.30;2.93;;;9.90;95.60;;;;;;5049305;28;20477;-65
2023/10/10 05:36:50;;;;;;;4.00;2.20;;;9.80;95.70;;;;;;5047348;28;20476;-65
2023/10/10 05:39:20;;;;;;;17.23;4.93;;;9.60;95.90;;;;;;5031263;28;20476;-65
2023/10/10 05:41:47;;;;;;;7.43;3.67;;;9.60;96.20;;;;;;5032167;28;20955;-65
2023/10/10 05:44:16;;;;;;;12.30;2.97;;;9.40;96.70;;;;;;5026498;28;20490;-66
2023/10/10 05:46:43;;;;;;;5.67;2.50;;;9.40;96.90;;;;;;5049693;28;20935;-64
2023/10/10 05:49:10;;;;;;;9.50;3.57;;;9.30;97.00;;;;;;5059105;28;20478;-64
2023/10/10 05:51:36;;;;;;;7.50;2.43;;;9.30;97.20;;;;;;5048160;28;20558;-64
2023/10/10 05:54:07;;;;;;;5.67;2.80;;;9.20;97.60;;;;;;5053128;28;20487;-64
2023/10/10 05:56:34;;;;;;;19.83;3.57;;;9.20;98.50;;;;;;5055453;28;20520;-64
2023/10/10 05:59:02;;;;;;;13.53;4.00;;;9.30;98.90;;;;;;5040501;28;20991;-64
2023/10/10 06:01:30;;;;;;;10.93;4.03;;;9.30;98.80;;;;;;5049156;28;20487;-64
2023/10/10 06:03:57;;;;;;;12.27;3.70;;;9.40;99.10;;;;;;5047081;28;20817;-64
2023/10/10 06:06:27;;;;;;;6.70;2.97;;;9.50;98.90;;;;;;5059021;28;20828;-64
2023/10/10 06:09:00;;;;;;;2.50;1.83;;;9.70;98.30;;;;;;5060138;28;20513;-63
2023/10/10 06:11:29;;;;;;;7.80;3.00;;;9.90;98.10;;;;;;5048944;28;20485;-64
2023/10/10 06:13:56;;;;;;;10.63;4.87;;;10.00;97.30;;;;;;5049997;28;20554;-64
2023/10/10 06:16:23;;;;;;;3.40;2.40;;;10.00;97.20;;;;;;5054174;28;20951;-64
2023/10/10 06:18:50;;;;;;;13.67;3.47;;;10.10;97.00;;;;;;5039775;28;20531;-64
2023/10/10 06:21:18;;;;;;;5.73;2.90;;;10.20;97.00;;;;;;5055894;28;20479;-64
2023/10/10 06:23:45;;;;;;;8.87;3.03;;;10.30;96.80;;;;;;5050681;28;20477;-64
2023/10/10 06:26:13;;;;;;;12.13;3.43;;;;;;;;;;5057102;28;20546;-64
2023/10/10 06:28:47;;;;;;;3.67;2.80;;;10.50;96.50;;;;;;5040048;28;20477;-64
2023/10/10 06:31:17;;;;;;;21.50;3.57;;;10.60;96.40;;;;;;5043172;28;20483;-63
2023/10/10 06:33:44;;;;;;;8.23;3.80;;;10.60;96.40;;;;;;5016436;28;20517;-64
2023/10/10 06:41:54;;;;;;;13.87;5.03;;;11.00;96.70;;;;;;4996359;28;20482;-63
2023/10/10 06:44:35;;;;;;;8.03;3.77;;;11.00;96.60;;;;;;5023169;28;20530;-64
2023/10/10 06:47:08;;;;;;;12.40;3.33;;;11.00;96.50;;;;;;5031615;28;20528;-64
2023/10/10 06:49:44;;;;;;;5.27;3.00;;;11.20;96.60;;;;;;5043049;28;20479;-64
2023/10/10 06:52:18;;;;;;;20.80;3.67;;;;;;;;;;5049971;28;20685;-63
2023/10/10 06:54:45;;;;;;;4.00;3.27;;;;;;;;;;5034845;28;20518;-64
2023/10/10 06:57:18;;;;;;;8.77;4.23;;;11.70;96.50;;;;;;5034346;28;20522;-66
2023/10/10 06:59:48;;;;;;;7.67;5.37;;;11.90;96.00;;;;;;5021470;28;20499;-66
2023/10/10 07:02:21;;;;;;;9.87;3.63;;;12.00;96.00;;;;;;5030884;28;20491;-66
2023/10/10 07:04:52;;;;;;;8.07;3.80;;;12.30;96.40;;;;;;5023747;28;20574;-65
2023/10/10 07:07:20;;;;;;;4.73;2.93;;;12.50;96.70;;;;;;5024866;28;20487;-66
2023/10/10 07:09:48;;;;;;;10.00;3.83;;;12.70;96.40;;;;;;5050108;28;20513;-66
2023/10/10 07:12:16;;;;;;;17.07;5.23;;;;;;;;;;5020580;28;20490;-66
2023/10/10 07:14:44;;;;;;;11.43;4.07;;;13.20;96.60;;;;;;5033573;28;20490;-66
2023/10/10 07:17:13;;;;;;;41.57;5.27;;;13.80;96.80;;;;;;5030798;28;21081;-67
2023/10/10 07:22:36;;;;;;;13.03;3.97;;;14.50;95.90;;;;;;5043579;27;20980;-67
2023/10/10 07:25:07;;;;;;;10.70;3.90;;;14.60;95.40;;;;;;5038898;28;20489;-67
2023/10/10 07:27:35;;;;;;;9.70;3.93;;;14.60;95.60;;;;;;5068692;28;20475;-67
2023/10/10 07:30:16;;;;;;;7.53;3.70;;;14.70;95.80;;;;;;5071292;28;20981;-66
2023/10/10 07:32:43;;;;;;;7.70;3.67;;;14.80;95.50;;;;;;5054207;27;20481;-67
2023/10/10 07:35:14;;;;;;;11.87;4.50;;;15.10;95.90;;;;;;5063455;28;20479;-66
2023/10/10 07:37:43;;;;;;;13.20;4.97;;;15.50;96.50;;;;;;5072811;28;20477;-66
2023/10/10 07:40:20;;;;;;;21.53;5.03;;;15.90;96.80;;;;;;5050842;28;20487;-67
2023/10/10 07:42:50;;;;;;;10.37;5.03;;;16.20;96.60;;;;;;5059707;27;20473;-66
2023/10/10 07:45:28;;;;;;;9.47;4.47;;;16.50;95.90;;;;;;5051053;28;20859;-66
2023/10/10 07:50:48;;;;;;;7.20;3.70;;;16.80;95.40;;;;;;5072383;28;20672;-67
2023/10/10 07:53:18;;;;;;;7.43;4.67;;;16.80;95.50;;;;;;5073486;27;20480;-67
2023/10/10 07:56:00;;;;;;;6.50;3.47;;;16.90;95.70;;;;;;5045756;28;20482;-67
2023/10/10 07:58:42;;;;;;;14.43;4.30;;;17.00;95.80;;;;;;5065567;27;21036;-67
2023/10/10 08:01:10;;;;;;;9.37;4.27;;;17.00;95.80;;;;;;5026424;28;20494;-67
2023/10/10 08:03:43;;;;;;;8.67;5.40;;;;;;;;;;5028745;28;20523;-68
2023/10/10 08:06:11;;;;;;;5.97;4.57;;;17.10;96.00;;;;;;5020147;28;20486;-65
2023/10/10 08:08:40;;;;;;;9.70;4.90;;;17.30;96.50;;;;;;5017354;28;20475;-64
2023/10/10 08:11:12;;;;;;;11.53;4.97;;;17.40;96.40;;;;;;5037354;28;20728;-65
2023/10/10 08:13:41;;;;;;;15.80;4.63;;;17.40;96.40;;;;;;5030283;28;20482;-65
2023/10/10 08:16:09;;;;;;;8.70;3.83;;;17.70;96.50;;;;;;5016782;28;20895;-69
2023/10/10 08:18:52;;;;;;;9.80;5.20;;;17.80;96.70;;;;;;5018987;28;21059;-68
2023/10/10 08:21:22;;;;;;;52.77;6.87;;;18.00;96.50;;;;;;5012802;28;20981;-68
2023/10/10 08:23:56;;;;;;;15.20;5.10;;;18.10;96.10;;;;;;5028997;28;20462;-69
2023/10/10 08:26:26;;;;;;;7.63;4.63;;;18.10;96.10;;;;;;5015819;28;20493;-68
2023/10/10 08:28:54;;;;;;;12.73;5.27;;;;;;;;;;5029380;28;20494;-68
2023/10/10 08:31:22;;;;;;;19.50;4.80;;;18.00;96.70;;;;;;5025839;28;20817;-68
2023/10/10 08:33:50;;;;;;;12.70;5.53;;;17.90;96.40;;;;;;5010507;28;20514;-67
2023/10/10 08:36:24;;;;;;;8.80;5.07;;;17.80;96.90;;;;;;5002367;28;20458;-68
2023/10/10 08:38:53;;;;;;;10.93;4.50;;;17.80;97.00;;;;;;4998147;28;20491;-68
2023/10/10 08:41:23;;;;;;;16.10;5.50;;;17.70;97.50;;;;;;5013596;28;20447;-68
2023/10/10 08:43:57;;;;;;;6.13;4.33;;;17.70;97.80;;;;;;5015300;28;20530;-69
2023/10/10 08:46:27;;;;;;;9.40;4.63;;;17.70;98.40;;;;;;5014526;28;20472;-67
2023/10/10 08:48:55;;;;;;;31.23;6.57;;;17.90;98.30;;;;;;5020013;28;20766;-68
2023/10/10 08:51:22;;;;;;;26.30;6.20;;;17.90;98.70;;;;;;5017281;28;21413;-68
2023/10/10 08:53:52;;;;;;;9.80;5.47;;;18.00;98.50;;;;;;5023573;28;20880;-68
2023/10/10 08:56:20;;;;;;;9.40;4.97;;;18.20;98.70;;;;;;5014807;28;20556;-68
2023/10/10 08:58:48;;;;;;;12.67;4.97;;;18.30;99.00;;;;;;5013635;28;20495;-69
2023/10/10 09:01:14;;;;;;;17.07;5.40;;;18.40;99.20;;;;;;5026463;28;20488;-68
2023/10/10 09:03:45;;;;;;;10.67;4.93;;;18.60;99.10;;;;;;5051117;28;20478;-69
2023/10/10 09:06:16;;;;;;;9.30;5.10;;;18.70;99.10;;;;;;5020938;28;20480;-69
2023/10/10 09:08:44;;;;;;;15.03;5.83;;;18.70;98.60;;;;;;5032172;28;20479;-69
2023/10/10 09:11:13;;;;;;;16.83;5.40;;;18.70;98.90;;;;;;5029310;28;20533;-69
2023/10/10 09:13:51;;;;;;;7.00;3.93;;;18.80;98.70;;;;;;5012932;28;20477;-69
2023/10/10 09:16:20;;;;;;;36.20;6.97;;;18.80;98.60;;;;;;5011652;28;20488;-68
2023/10/10 09:19:08;;;;;;;10.60;5.53;;;18.90;98.50;;;;;;5023819;28;20489;-69
2023/10/10 09:21:50;;;;;;;6.87;4.20;;;19.00;98.30;;;;;;4991929;28;20484;-68
2023/10/10 09:24:28;;;;;;;14.20;5.27;;;19.10;98.20;;;;;;5027606;28;20458;-68
2023/10/10 09:26:58;;;;;;;9.03;4.80;;;19.10;98.50;;;;;;5019089;28;21204;-68
2023/10/10 09:29:42;;;;;;;12.67;5.70;;;19.20;98.90;;;;;;5021198;28;21125;-69
2023/10/10 09:32:13;;;;;;;29.27;6.00;;;19.50;97.80;;;;;;5011017;28;20601;-68
2023/10/10 09:34:41;;;;;;;13.00;4.43;;;19.60;98.20;;;;;;5012892;28;20488;-69
2023/10/10 09:37:10;;;;;;;16.33;5.30;;;;;;;;;;5010355;28;20986;-67
2023/10/10 09:39:40;;;;;;;11.67;5.60;;;19.80;98.00;;;;;;5035895;28;20452;-68
2023/10/10 09:42:22;;;;;;;11.27;4.63;;;19.90;97.30;;;;;;5012561;28;20516;-68
2023/10/10 09:45:16;;;;;;;21.07;5.10;;;20.00;97.00;;;;;;5000985;28;20492;-68
2023/10/10 09:47:55;;;;;;;10.87;5.20;;;20.10;97.80;;;;;;5009550;28;20487;-69
2023/10/10 09:50:37;;;;;;;18.27;5.40;;;20.30;97.50;;;;;;5005352;28;20515;-69
2023/10/10 09:53:19;;;;;;;8.50;5.23;;;20.30;97.40;;;;;;5016525;28;20495;-68
2023/10/10 09:55:47;;;;;;;11.53;5.33;;;20.30;96.80;;;;;;4993454;28;20639;-69
2023/10/10 09:58:24;;;;;;;16.57;3.80;;;20.50;96.90;;;;;;5041522;28;21499;-69
2023/10/10 10:00:52;;;;;;;18.53;5.50;;;20.60;96.60;;;;;;5017722;28;20572;-68
2023/10/10 10:03:35;;;;;;;12.27;4.80;;;20.70;96.30;;;;;;5013114;28;20465;-70
2023/10/10 10:06:34;;;;;;;18.13;4.50;;;20.80;96.40;;;;;;5018395;28;20480;-70
2023/10/10 10:09:17;;;;;;;10.10;5.57;;;20.90;95.90;;;;;;5016165;28;20485;-69
2023/10/10 10:12:00;;;;;;;27.63;5.50;;;21.00;96.10;;;;;;5005738;28;20481;-69
2023/10/10 10:14:35;;;;;;;19.50;4.73;;;21.10;96.40;;;;;;5011625;28;20531;-69
2023/10/10 10:17:14;;;;;;;23.97;7.63;;;21.20;96.10;;;;;;5009485;28;20489;-69
2023/10/10 10:19:45;;;;;;;15.40;5.60;;;21.30;94.50;;;;;;5020364;28;20479;-69
2023/10/10 10:22:17;;;;;;;7.47;4.00;;;21.40;94.70;;;;;;5006656;28;20462;-70
2023/10/10 10:25:20;;;;;;;8.70;5.77;;;21.60;95.10;;;;;;5005693;28;20571;-67
2023/10/10 10:27:49;;;;;;;13.50;6.73;;;21.70;94.80;;;;;;5037143;28;20479;-70
2023/10/10 10:33:02;;;;;;;14.53;4.67;;;21.80;94.60;;;;;;5041556;28;20484;-68
2023/10/10 10:41:41;;;;;;;8.47;5.60;;;22.10;93.90;;;;;;5031741;28;20494;-66
2023/10/10 10:44:09;;;;;;;11.20;5.07;;;22.20;92.50;;;;;;5042223;28;20485;-67
2023/10/10 10:46:41;;;;;;;12.83;5.53;;;;;;;;;;5049433;28;20994;-66
2023/10/10 10:49:09;;;;;;;16.67;5.20;;;22.40;91.70;;;;;;5013694;28;21028;-67
2023/10/10 10:51:41;;;;;;;19.50;5.90;;;22.40;91.50;;;;;;5022324;28;20482;-66
2023/10/10 10:54:09;;;;;;;15.23;4.97;;;22.40;90.90;;;;;;5042418;28;20458;-67
2023/10/10 10:56:38;;;;;;;7.57;4.20;;;;;;;;;;5033086;28;20482;-66
2023/10/10 10:59:12;;;;;;;13.53;5.67;;;22.50;92.20;;;;;;5039044;28;20484;-67
2023/10/10 11:01:51;;;;;;;10.37;4.83;;;23.00;92.70;;;;;;5019689;28;21092;-65
2023/10/10 11:04:39;;;;;;;9.07;4.40;;;23.20;92.40;;;;;;5016357;28;20454;-66
2023/10/10 11:07:07;;;;;;;15.03;5.10;;;23.20;90.50;;;;;;5027747;28;20469;-67
2023/10/10 11:09:36;;;;;;;14.17;5.63;;;23.30;90.90;;;;;;5029654;28;20459;-66
2023/10/10 11:12:06;;;;;;;8.13;3.60;;;23.30;90.60;;;;;;5024279;28;20490;-66
2023/10/10 11:14:36;;;;;;;13.13;4.90;;;23.40;90.90;;;;;;5031170;28;20544;-66
2023/10/10 11:17:17;;;;;;;7.67;5.40;;;23.20;89.60;;;;;;5060784;28;20484;-67
2023/10/10 11:19:46;;;;;;;12.00;5.27;;;23.30;90.70;;;;;;5024811;28;20629;-68
2023/10/10 11:22:38;;;;;;;7.93;5.07;;;23.70;90.40;;;;;;5029962;28;20562;-67
2023/10/10 11:25:05;;;;;;;20.83;6.93;;;24.00;90.40;;;;;;5026223;28;20547;-66
2023/10/10 11:27:43;;;;;;;16.50;6.00;;;24.10;90.60;;;;;;5020013;28;20899;-67
2023/10/10 11:30:11;;;;;;;14.13;7.10;;;24.30;89.50;;;;;;5035926;28;20452;-67
2023/10/10 11:32:47;;;;;;;15.03;5.73;;;24.30;90.40;;;;;;5053774;28;20842;-66
2023/10/10 11:35:25;;;;;;;11.57;6.63;;;24.50;88.80;;;;;;5007483;28;20849;-70
2023/10/10 11:38:05;;;;;;;15.83;6.80;;;24.40;86.00;;;;;;5024678;28;20528;-70
2023/10/10 11:40:33;;;;;;;13.27;6.03;;;24.60;88.70;;;;;;5041387;28;20488;-69
2023/10/10 11:43:03;;;;;;;19.97;6.43;;;24.70;87.40;;;;;;5038511;28;20564;-69
2023/10/10 11:45:30;;;;;;;14.80;5.90;;;24.70;86.60;;;;;;5055159;28;20492;-70
2023/10/10 11:48:00;;;;;;;29.87;7.53;;;24.70;86.40;;;;;;5038363;28;20540;-68
2023/10/10 11:50:43;;;;;;;13.20;5.33;;;24.90;86.30;;;;;;5047544;28;20460;-69
2023/10/10 11:53:14;;;;;;;10.83;5.33;;;24.90;86.90;;;;;;5030380;28;20501;-69
2023/10/10 11:55:41;;;;;;;14.40;5.57;;;24.80;83.70;;;;;;5055784;28;20472;-69
2023/10/10 11:58:16;;;;;;;14.00;4.83;;;24.70;84.50;;;;;;5030915;28;20466;-68
2023/10/10 12:00:44;;;;;;;13.23;5.27;;;24.70;83.30;;;;;;5023960;28;20488;-70
2023/10/10 12:03:13;;;;;;;17.00;5.73;;;24.60;84.80;;;;;;5017959;28;20447;-69
2023/10/10 12:05:49;;;;;;;12.03;4.20;;;24.70;85.90;;;;;;5015440;28;21479;-69
2023/10/10 12:08:22;;;;;;;30.27;6.43;;;25.00;86.90;;;;;;5035015;28;20925;-68
2023/10/10 12:10:52;;;;;;;8.73;5.50;;;25.20;86.90;;;;;;5020160;28;20455;-69
2023/10/10 12:13:34;;;;;;;18.87;6.17;;;25.30;85.00;;;;;;5026583;28;20451;-68
2023/10/10 12:16:07;;;;;;;19.00;6.40;;;25.50;83.90;;;;;;4999639;28;21130;-68
2023/10/10 12:18:43;;;;;;;17.50;5.40;;;25.70;86.20;;;;;;4999661;28;20456;-70
2023/10/10 12:21:10;;;;;;;11.57;5.13;;;25.70;84.50;;;;;;5001535;28;20681;-68
2023/10/10 12:23:37;;;;;;;16.53;5.60;;;25.70;85.90;;;;;;5018025;28;20447;-68
2023/10/10 12:26:04;;;;;;;12.10;5.00;;;25.90;86.30;;;;;;5019151;28;20454;-68
2023/10/10 12:28:32;;;;;;;11.90;6.33;;;25.90;83.60;;;;;;5031480;28;20562;-69
2023/10/10 12:31:02;;;;;;;8.90;4.43;;;26.00;84.50;;;;;;4996025;28;20462;-69
2023/10/10 12:33:29;;;;;;;8.57;5.00;;;26.10;85.90;;;;;;4989886;28;20448;-69
2023/10/10 12:35:58;;;;;;;29.57;6.53;;;;;;;;;;5022631;28;20629;-68
2023/10/10 12:38:25;;;;;;;9.27;5.40;;;26.20;84.80;;;;;;5018270;28;20488;-69
2023/10/10 12:40:53;;;;;;;16.57;4.63;;;26.20;83.80;;;;;;5010953;28;20840;-69
2023/10/10 12:43:20;;;;;;;18.90;6.73;;;26.30;83.90;;;;;;5021458;28;20443;-69
2023/10/10 12:45:47;;;;;;;12.10;4.63;;;26.50;85.90;;;;;;5006261;28;20452;-67
2023/10/10 12:48:20;;;;;;;10.17;5.10;;;26.60;84.70;;;;;;5026089;28;20497;-67
2023/10/10 12:50:47;;;;;;;15.70;4.93;;;26.50;82.90;;;;;;5019355;28;20551;-67
2023/10/10 12:53:16;;;;;;;11.87;5.17;;;26.60;84.20;;;;;;5014714;28;20489;-69
2023/10/10 12:55:51;;;;;;;15.90;7.30;;;26.60;82.60;;;;;;5012722;28;20844;-66
2023/10/10 12:58:20;;;;;;;12.70;4.90;;;26.50;83.30;;;;;;5020050;28;20479;-66
2023/10/10 13:00:51;;;;;;;7.40;4.60;;;26.50;82.40;;;;;;5010221;28;20552;-69
2023/10/10 13:03:27;;;;;;;10.33;6.33;;;26.40;82.20;;;;;;5008324;28;20534;-66
2023/10/10 13:05:58;;;;;;;17.23;7.23;;;26.20;83.70;;;;;;5004694;28;20581;-66
2023/10/10 13:08:38;;;;;;;9.13;4.87;;;26.30;83.40;;;;;;5008054;28;20467;-66
2023/10/10 13:11:12;;;;;;;17.90;6.10;;;26.20;81.20;;;;;;5000084;28;20532;-67
2023/10/10 13:13:45;;;;;;;18.93;5.27;;;26.20;84.00;;;;;;5004293;28;20467;-66
2023/10/10 13:16:24;;;;;;;13.03;4.97;;;26.30;82.80;;;;;;5003583;28;20482;-67
2023/10/10 13:18:51;;;;;;;11.10;4.40;;;26.10;81.10;;;;;;5007957;28;20452;-67
2023/10/10 13:21:20;;;;;;;8.10;4.90;;;26.00;83.10;;;;;;5006940;28;20528;-67
2023/10/10 13:23:49;;;;;;;10.43;5.20;;;25.90;81.70;;;;;;5009856;28;20450;-68
2023/10/10 13:26:17;;;;;;;14.03;5.40;;;26.00;80.00;;;;;;4996193;28;20851;-67
2023/10/10 13:28:45;;;;;;;11.00;4.97;;;;;;;;;;5023972;28;20861;-66
2023/10/10 13:31:13;;;;;;;23.23;5.27;;;26.10;81.10;;;;;;4986017;28;20827;-67
2023/10/10 13:33:40;;;;;;;8.87;4.67;;;26.20;80.40;;;;;;5013457;28;20568;-67
2023/10/10 13:36:08;;;;;;;12.33;5.60;;;26.30;80.10;;;;;;5009030;28;20551;-67
2023/10/10 13:38:35;;;;;;;14.57;5.87;;;26.40;80.00;;;;;;5005708;28;20568;-68
2023/10/10 13:41:08;;;;;;;10.83;4.90;;;26.50;80.70;;;;;;4999451;28;20462;-66
2023/10/10 13:43:36;;;;;;;12.53;5.10;;;26.60;82.00;;;;;;5013356;28;20475;-66
2023/10/10 13:46:03;;;;;;;12.00;5.20;;;26.80;79.90;;;;;;5012085;28;20513;-67
2023/10/10 13:48:30;;;;;;;7.00;5.10;;;26.90;82.00;;;;;;5017283;28;20482;-67
2023/10/10 13:50:59;;;;;;;6.77;4.43;;;27.10;81.20;;;;;;5020650;28;20843;-69
2023/10/10 13:53:26;;;;;;;9.03;5.13;;;27.30;79.00;;;;;;5009159;28;20568;-67
2023/10/10 13:55:53;;;;;;;21.53;5.90;;;27.20;80.20;;;;;;5002515;28;20491;-69
2023/10/10 13:58:22;;;;;;;7.73;3.87;;;;;;;;;;5013413;28;20508;-68
2023/10/10 14:00:55;;;;;;;24.50;6.33;;;26.80;79.40;;;;;;5015086;28;20550;-69
2023/10/10 14:03:29;;;;;;;17.47;6.07;;;26.70;80.70;;;;;;5019631;28;21361;-69
2023/10/10 14:06:03;;;;;;;13.07;6.00;;;26.20;79.30;;;;;;5010192;28;20503;-70
2023/10/10 14:08:31;;;;;;;9.93;5.40;;;26.10;81.40;;;;;;5004967;28;20470;-69
2023/10/10 14:11:00;;;;;;;9.40;5.30;;;26.10;82.80;;;;;;5003501;28;20482;-68
2023/10/10 14:13:29;;;;;;;8.50;4.40;;;26.20;81.20;;;;;;5018956;28;20561;-70
2023/10/10 14:15:57;;;;;;;8.50;5.77;;;26.20;80.10;;;;;;5003223;28;20483;-69
2023/10/10 14:18:26;;;;;;;16.53;6.00;;;26.20;80.80;;;;;;5010245;28;20457;-68
2023/10/10 14:20:53;;;;;;;11.40;5.93;;;26.20;79.20;;;;;;5018656;28;20562;-69
2023/10/10 14:23:22;;;;;;;8.73;4.67;;;26.10;79.80;;;;;;5010953;28;20575;-69
2023/10/10 14:25:49;;;;;;;8.57;4.80;;;;;;;;;;5016677;28;20563;-69
2023/10/10 14:28:17;;;;;;;15.00;4.57;;;26.20;80.60;;;;;;5011320;28;20876;-69
2023/10/10 14:30:48;;;;;;;14.57;4.40;;;26.40;80.40;;;;;;5013822;28;20466;-69
2023/10/10 14:33:16;;;;;;;40.27;7.03;;;26.50;79.00;;;;;;5011225;28;20862;-69
2023/10/10 14:35:44;;;;;;;7.40;4.13;;;26.50;81.20;;;;;;5012902;28;20575;-69
2023/10/10 14:38:14;;;;;;;9.00;4.70;;;26.80;80.10;;;;;;5011999;28;20457;-70
2023/10/10 14:40:41;;;;;;;17.03;5.10;;;26.80;77.80;;;;;;5012260;28;21446;-70
2023/10/10 14:43:10;;;;;;;18.97;5.60;;;26.80;79.40;;;;;;5011970;28;20701;-70
2023/10/10 14:45:42;;;;;;;10.80;4.70;;;26.90;80.00;;;;;;4995879;28;20456;-69
2023/10/10 14:48:12;;;;;;;17.57;4.77;;;27.00;78.10;;;;;;5006322;28;20461;-70
2023/10/10 14:50:40;;;;;;;8.10;4.40;;;27.10;79.60;;;;;;5016313;28;21199;-69
2023/10/10 14:53:09;;;;;;;8.73;5.63;;;27.10;79.00;;;;;;5014511;28;21056;-70
2023/10/10 14:55:44;;;;;;;8.00;4.40;;;26.90;77.70;;;;;;5014145;28;20455;-69
2023/10/10 14:58:12;;;;;;;15.40;4.77;;;26.90;78.80;;;;;;5014307;28;20475;-70
2023/10/10 15:00:41;;;;;;;18.97;4.60;;;26.70;79.10;;;;;;5016950;28;20449;-70
2023/10/10 15:03:15;;;;;;;9.03;4.93;;;26.50;80.70;;;;;;5016528;28;20574;-69
2023/10/10 15:05:50;;;;;;;8.17;4.03;;;26.40;80.00;;;;;;5013184;28;20468;-67
2023/10/10 15:08:18;;;;;;;38.33;5.50;;;26.30;81.10;;;;;;5016652;28;20921;-66
2023/10/10 15:10:46;;;;;;;7.37;4.90;;;26.20;81.30;;;;;;5009806;28;20476;-66
2023/10/10 15:13:16;;;;;;;9.80;4.60;;;26.10;81.90;;;;;;5009926;28;20536;-66
2023/10/10 15:15:46;;;;;;;18.50;5.17;;;25.70;80.40;;;;;;5004498;28;20484;-66